Taisho Maru — JI3307 — position and weather

sailwx.info

Track history (hours):
 
Tides and Currents Weather Stations Pressure Air Temp Water Temp Dewpoint Dewpoint Depression Visibility Wind Speed Wind Dir Waves Ship Positions

Taisho Maru

Last reported at 2014-Jul-15 11:33 UTC. Time now 2014-Jul-24 10:46 UTC.
Position N 34°36' E 134°55'.
Warning: this ship's position is 8 days out of date.

Length 93 m; draft 4.8 m.

Type: Cargo ship. MMSI: 431300084.

Date/timePositionNaut miles runAvg speedWind from/ knotsBaromVisibWave heightAir tempDewpointWater temp
2014-Jul-15 11:33N 34°36' E 134°55'1414.3
2014-Jul-15 10:34N 34°36' E 135°12'1111.4
2014-Jul-15 09:33N 34°39' E 135°26'1 0.4
2014-Jul-15 07:12N 34°40' E 135°27'0 0.0
2014-Jul-15 06:30N 34°40' E 135°27'0 0.0
2014-Jul-15 04:12N 34°40' E 135°27'0 0.0
2014-Jul-15 01:24N 34°40' E 135°27'0 0.0
2014-Jul-14 23:12N 34°40' E 135°27'2 3.1
2014-Jul-14 22:33N 34°39' E 135°25'7 6.4
2014-Jul-14 21:32N 34°36' E 135°18'0 0.1
2014-Jul-14 20:32N 34°36' E 135°18'0 0.0
2014-Jul-14 19:32N 34°36' E 135°18'7 7.6
2014-Jul-14 18:33N 34°34' E 135°09'1413.7
2014-Jul-14 17:33N 34°37' E 134°53'6 0.1
2014-Jul-12 22:31N 34°38' E 135°00'1111.2
2014-Jul-12 21:33N 34°27' E 135°03'1212.0
2014-Jul-12 20:33N 34°15' E 135°01'6 5.5
2014-Jul-12 19:32N 34°14' E 135°08'0 0.0
2014-Jul-12 18:32N 34°14' E 135°08'0 0.0
2014-Jul-12 17:29N 34°14' E 135°08'0 0.0
2014-Jul-12 16:32N 34°14' E 135°08'0 0.0
2014-Jul-12 15:29N 34°14' E 135°08'0 0.0
2014-Jul-12 14:08N 34°14' E 135°08'0 0.0
2014-Jul-12 13:32N 34°14' E 135°08'0 0.0
2014-Jul-12 12:32N 34°14' E 135°08'0 0.0
2014-Jul-12 11:32N 34°14' E 135°08'5 5.2
2014-Jul-12 10:33N 34°15' E 135°02'8 7.9
2014-Jul-12 09:30N 34°23' E 135°02'1212.1
2014-Jul-12 08:33N 34°31' E 135°13'1212.3
2014-Jul-12 07:33N 34°39' E 135°24'3 0.3
2014-Jul-11 22:28N 34°40' E 135°27'6 6.8
2014-Jul-11 21:33N 34°37' E 135°21'3 2.4
2014-Jul-11 20:30N 34°35' E 135°18'0 0.0
2014-Jul-11 19:12N 34°35' E 135°18'0 0.0
2014-Jul-11 18:30N 34°35' E 135°18'0 0.0
2014-Jul-11 17:30N 34°35' E 135°18'0 0.0
2014-Jul-11 16:24N 34°35' E 135°18'0 0.0
2014-Jul-11 15:12N 34°35' E 135°18'0 0.0
2014-Jul-11 14:30N 34°35' E 135°18'0 0.0
2014-Jul-11 13:30N 34°35' E 135°18'0 0.0
2014-Jul-11 12:18N 34°35' E 135°18'0 0.1
2014-Jul-11 11:30N 34°35' E 135°18'0 0.0
2014-Jul-11 09:24N 34°35' E 135°18'5 6.1
2014-Jul-11 08:33N 34°35' E 135°12'1310.8
2014-Jul-11 07:22N 34°36' E 134°56'5 0.1
2014-Jul-09 05:33N 34°37' E 135°02'1312.7
2014-Jul-09 04:33N 34°37' E 135°18'8 7.3
2014-Jul-09 03:30N 34°34' E 135°27'0 0.0
2014-Jul-09 02:30N 34°34' E 135°27'0 0.0
2014-Jul-09 01:30N 34°34' E 135°27'0 0.0
2014-Jul-09 00:24N 34°34' E 135°27'0 0.4
2014-Jul-08 23:32N 34°35' E 135°27'4 3.7
2014-Jul-08 22:24N 34°36' E 135°22'0 0.0
2014-Jul-08 21:24N 34°36' E 135°22'0 0.0
2014-Jul-08 20:24N 34°36' E 135°22'0 0.1
2014-Jul-08 19:30N 34°36' E 135°22'0 0.0
2014-Jul-08 18:30N 34°36' E 135°22'0 0.0
2014-Jul-08 17:30N 34°36' E 135°22'0 0.0
2014-Jul-08 16:24N 34°36' E 135°22'0 0.0
2014-Jul-08 15:24N 34°36' E 135°22'0 0.0
2014-Jul-08 14:24N 34°36' E 135°22'0 0.0
2014-Jul-08 13:24N 34°36' E 135°22'0 0.0
2014-Jul-08 12:30N 34°36' E 135°22'0 0.0
2014-Jul-08 11:24N 34°36' E 135°22'0 0.0
2014-Jul-08 10:24N 34°36' E 135°22'0 0.1
2014-Jul-08 09:33N 34°36' E 135°22'1211.8
2014-Jul-08 08:33N 34°28' E 135°11'1514.0
2014-Jul-08 07:28N 34°16' E 134°59'11 1.4
2014-Jul-07 23:11N 34°07' E 135°08'1 1.6
2014-Jul-07 22:33N 34°08' E 135°07'0 0.1
2014-Jul-07 21:33N 34°08' E 135°07'0 0.0
2014-Jul-07 20:33N 34°08' E 135°07'0 0.0
2014-Jul-07 19:24N 34°08' E 135°07'0 0.0
2014-Jul-07 18:33N 34°08' E 135°07'0 0.0
2014-Jul-07 17:33N 34°08' E 135°07'1 0.6
2014-Jul-07 16:33N 34°08' E 135°06'  
Track history (hours):
 
Tides and Currents Weather Stations Pressure Air Temp Water Temp Dewpoint Dewpoint Depression Visibility Wind Speed Wind Dir Waves Ship Positions

Taisho Maru

Last reported at 2014-Jul-15 11:33 UTC. Time now 2014-Jul-24 10:46 UTC.
Position N 34°36' E 134°55'.
Warning: this ship's position is 8 days out of date.

Length 93 m; draft 4.8 m.

Type: Cargo ship. MMSI: 431300084.

Date/timePositionNaut miles runAvg speedWind from/ knotsBaromVisibWave heightAir tempDewpointWater temp
2014-Jul-15 11:33N 34°36' E 134°55'1414.3
2014-Jul-15 10:34N 34°36' E 135°12'1111.4
2014-Jul-15 09:33N 34°39' E 135°26'1 0.4
2014-Jul-15 07:12N 34°40' E 135°27'0 0.0
2014-Jul-15 06:30N 34°40' E 135°27'0 0.0
2014-Jul-15 04:12N 34°40' E 135°27'0 0.0
2014-Jul-15 01:24N 34°40' E 135°27'0 0.0
2014-Jul-14 23:12N 34°40' E 135°27'2 3.1
2014-Jul-14 22:33N 34°39' E 135°25'7 6.4
2014-Jul-14 21:32N 34°36' E 135°18'0 0.1
2014-Jul-14 20:32N 34°36' E 135°18'0 0.0
2014-Jul-14 19:32N 34°36' E 135°18'7 7.6
2014-Jul-14 18:33N 34°34' E 135°09'1413.7
2014-Jul-14 17:33N 34°37' E 134°53'6 0.1
2014-Jul-12 22:31N 34°38' E 135°00'1111.2
2014-Jul-12 21:33N 34°27' E 135°03'1212.0
2014-Jul-12 20:33N 34°15' E 135°01'6 5.5
2014-Jul-12 19:32N 34°14' E 135°08'0 0.0
2014-Jul-12 18:32N 34°14' E 135°08'0 0.0
2014-Jul-12 17:29N 34°14' E 135°08'0 0.0
2014-Jul-12 16:32N 34°14' E 135°08'0 0.0
2014-Jul-12 15:29N 34°14' E 135°08'0 0.0
2014-Jul-12 14:08N 34°14' E 135°08'0 0.0
2014-Jul-12 13:32N 34°14' E 135°08'0 0.0
2014-Jul-12 12:32N 34°14' E 135°08'0 0.0
2014-Jul-12 11:32N 34°14' E 135°08'5 5.2
2014-Jul-12 10:33N 34°15' E 135°02'8 7.9
2014-Jul-12 09:30N 34°23' E 135°02'1212.1
2014-Jul-12 08:33N 34°31' E 135°13'1212.3
2014-Jul-12 07:33N 34°39' E 135°24'3 0.3
2014-Jul-11 22:28N 34°40' E 135°27'6 6.8
2014-Jul-11 21:33N 34°37' E 135°21'3 2.4
2014-Jul-11 20:30N 34°35' E 135°18'0 0.0
2014-Jul-11 19:12N 34°35' E 135°18'0 0.0
2014-Jul-11 18:30N 34°35' E 135°18'0 0.0
2014-Jul-11 17:30N 34°35' E 135°18'0 0.0
2014-Jul-11 16:24N 34°35' E 135°18'0 0.0
2014-Jul-11 15:12N 34°35' E 135°18'0 0.0
2014-Jul-11 14:30N 34°35' E 135°18'0 0.0
2014-Jul-11 13:30N 34°35' E 135°18'0 0.0
2014-Jul-11 12:18N 34°35' E 135°18'0 0.1
2014-Jul-11 11:30N 34°35' E 135°18'0 0.0
2014-Jul-11 09:24N 34°35' E 135°18'5 6.1
2014-Jul-11 08:33N 34°35' E 135°12'1310.8
2014-Jul-11 07:22N 34°36' E 134°56'5 0.1
2014-Jul-09 05:33N 34°37' E 135°02'1312.7
2014-Jul-09 04:33N 34°37' E 135°18'8 7.3
2014-Jul-09 03:30N 34°34' E 135°27'0 0.0
2014-Jul-09 02:30N 34°34' E 135°27'0 0.0
2014-Jul-09 01:30N 34°34' E 135°27'0 0.0
2014-Jul-09 00:24N 34°34' E 135°27'0 0.4
2014-Jul-08 23:32N 34°35' E 135°27'4 3.7
2014-Jul-08 22:24N 34°36' E 135°22'0 0.0
2014-Jul-08 21:24N 34°36' E 135°22'0 0.0
2014-Jul-08 20:24N 34°36' E 135°22'0 0.1
2014-Jul-08 19:30N 34°36' E 135°22'0 0.0
2014-Jul-08 18:30N 34°36' E 135°22'0 0.0
2014-Jul-08 17:30N 34°36' E 135°22'0 0.0
2014-Jul-08 16:24N 34°36' E 135°22'0 0.0
2014-Jul-08 15:24N 34°36' E 135°22'0 0.0
2014-Jul-08 14:24N 34°36' E 135°22'0 0.0
2014-Jul-08 13:24N 34°36' E 135°22'0 0.0
2014-Jul-08 12:30N 34°36' E 135°22'0 0.0
2014-Jul-08 11:24N 34°36' E 135°22'0 0.0
2014-Jul-08 10:24N 34°36' E 135°22'0 0.1
2014-Jul-08 09:33N 34°36' E 135°22'1211.8
2014-Jul-08 08:33N 34°28' E 135°11'1514.0
2014-Jul-08 07:28N 34°16' E 134°59'11 1.4
2014-Jul-07 23:11N 34°07' E 135°08'1 1.6
2014-Jul-07 22:33N 34°08' E 135°07'0 0.1
2014-Jul-07 21:33N 34°08' E 135°07'0 0.0
2014-Jul-07 20:33N 34°08' E 135°07'0 0.0
2014-Jul-07 19:24N 34°08' E 135°07'0 0.0
2014-Jul-07 18:33N 34°08' E 135°07'0 0.0
2014-Jul-07 17:33N 34°08' E 135°07'1 0.6
2014-Jul-07 16:33N 34°08' E 135°06'  

Dump ship's entire track history